Historyczne dane pomiarowe

Dodano dane terminowe – wersja testowa.

Dane z okresu 1951-2019

Wersja bazy: 1.34 [2019-03-16, lista zmian], aktualizacja planowana na 2019-04-15

Dane meteo z obszaru Polski uzyskane na podstawie danych udostępnionych przez Instytut Meteorologii i Gospodarki Wodnej – Państwowy Instytut Badawczy.

 

Wybierz Datę:    

       

TemperaturaWilgotnośćWiatrCiśnienieOpadyŚniegCzas trwania zjawisk
 Stacja t tx tn tng RH VA  wxwx mslp ppp RRR   cm mm wxwxwxwxwxwxwx
1990-12-13 0.2 1.8 -2.2 -3.4 94.0- 7.7 1.7---- 0.2------------
1990-12-14 1.3 2.1 0.4 -0.1 88.8- 8.0 3.3---- 0.2------------
1990-12-15 0.4 1.1 -0.5 -1.1 94.3- 8.0 2.7---- 0.0------------
1990-12-16 0.7 1.4 0.0 -0.2 92.0- 7.3 2.3---- 0.0------------
1990-12-17 -1.6 0.2 -2.2 -1.9 87.3- 8.0 2.7---- 0.0------------
1990-12-18 -0.9 0.1 -2.5 -2.5 88.5- 8.0 3.0---- 0.0------------
1990-12-19 0.0 0.4 -0.7 -0.7 94.3- 8.0 1.3---- 0.8------------
1990-12-20 -0.3 0.9 -2.2 -4.2 91.5- 8.0 2.3---- 0.4-- 1---------
1990-12-21 1.2 3.0 -0.2 -0.6 89.8- 6.7 4.0---- 1.2-- 1---------
1990-12-22 -0.8 2.1 -1.7 -3.2 94.5- 8.0 1.7---- 0.0------------
1990-12-23 -1.2 0.7 -3.2 -3.2 93.8- 5.0 2.0---- 0.0------------
1990-12-24 -3.2 -0.5 -5.2 -5.8 78.3- 0.0 3.3---- 0.0------------
1990-12-25 -2.5 -0.2 -5.0 -6.8 65.3- 0.0 3.3---- 0.0------------
1990-12-26 -0.9 2.2 -3.4 -5.0 74.8- 3.3 3.3---- 0.1------------
1990-12-27 2.6 6.2 -0.4 -1.9 90.5- 7.3 3.7---- 0.3------------
1990-12-28 2.3 4.1 0.3 -1.7 80.8- 2.7 4.3---- 0.0------------
1990-12-29 2.4 4.4 -0.4 -3.7 85.3- 7.7 4.0---- 8.4------------
1990-12-30 5.7 8.1 2.8 -0.3 85.0- 5.3 3.0---- 0.0------------
1990-12-31 2.3 5.7 0.1 -2.7 92.5- 1.0 2.0---- 0.3------------
1991-01-01 2.2 4.5 -1.0 -3.4 93.5- 7.3 2.7---- 0.2------------
1991-01-02 1.8 3.5 -0.8 -2.7 89.5- 4.7 2.7---- 3.8------------
1991-01-03 6.8 9.0 3.2 1.9 89.8- 5.7 3.0---- 1.3------------
1991-01-04 5.8 8.6 3.6 0.9 95.8- 8.0 2.0---- 2.3------------
1991-01-05 4.3 6.4 2.4 -0.2 86.8- 3.3 4.3---- 3.7------------
1991-01-06 4.5 6.9 1.6 -0.1 72.8- 3.0 5.0---- 0.0------------
1991-01-07 5.4 7.4 2.8 1.4 72.3- 5.7 3.0---- 0.0------------
1991-01-08 5.7 8.3 2.3 -1.6 83.8- 4.0 3.3---- 1.0------------
1991-01-09 7.6 10.9 4.4 2.1 74.0- 7.0 4.0---- 0.3------------
1991-01-10 10.1 14.9 5.8 3.0 77.8- 7.0 5.0---- 2.5------------
1991-01-11 7.5 15.1 5.8 3.4 84.8- 5.7 3.0---- 2.0------------
300.6 ms

 

Źródłem pochodzenia danych jest Instytut Meteorologii i Gospodarki Wodnej – Państwowy Instytut Badawczy. Dane Instytutu Meteorologii i Gospodarki Wodnej – Państwowego Instytutu Badawczego zostały przetworzone.

Dane źródłowe można odnaleźć na stronie https://dane.imgw.pl